Time;durP1;ratioP1;P1;durP2;ratioP2;P2;SDS_P1;SDS_P2;PMS_P1;PMS_P2;Temp;Humidity;BMP_temperature;BMP_pressure;BME280_temperature;BME280_humidity;BME280_pressure;Samples;Min_cycle;Max_cycle;Signal;HPM_P1;HPM_P2
2023/09/07 00:00:34;;;;;;;423.53;109.60;;;;;;;;;;4992866;28;20148;-54
2023/09/07 00:03:00;;;;;;;588.80;125.13;;;;;;;;;;4990226;28;20268;-54
2023/09/07 00:05:25;;;;;;;493.53;117.53;;;;;;;;;;4993864;28;20034;-54
2023/09/07 00:07:51;;;;;;;577.25;125.45;;;;;;;;;;4993894;28;20283;-55
2023/09/07 00:10:17;;;;;;;435.00;110.32;;;;;;;;;;4988817;28;20041;-55
2023/09/07 00:12:42;;;;;;;440.92;115.13;;;;;;;;;;4992937;28;20018;-54
2023/09/07 00:15:08;;;;;;;426.50;120.20;;;;;;;;;;4993861;28;20036;-55
2023/09/07 00:17:33;;;;;;;472.38;119.35;;;;;;;;;;4994341;28;20432;-57
2023/09/07 00:19:59;;;;;;;644.73;129.80;;;;;;;;;;4992996;28;20014;-55
2023/09/07 00:22:27;;;;;;;444.63;126.88;;;;;;;;;;4994617;28;20279;-56
2023/09/07 00:24:52;;;;;;;600.72;137.75;;;;;;;;;;4994851;28;20033;-55
2023/09/07 00:27:18;;;;;;;514.95;137.40;;;;;;;;;;4992329;28;20092;-54
2023/09/07 00:29:43;;;;;;;501.15;137.57;;;;;;;;;;4993249;28;20483;-54
2023/09/07 00:32:09;;;;;;;461.50;133.60;;;;;;;;;;4995271;28;20038;-54
2023/09/07 00:34:34;;;;;;;549.22;143.32;;;;;;;;;;4990702;28;20014;-53
2023/09/07 00:37:00;;;;;;;611.20;145.25;;;;;;;;;;4990097;28;20455;-55
2023/09/07 00:39:25;;;;;;;507.38;140.25;;;;;;;;;;4989114;28;20021;-56
2023/09/07 00:41:50;;;;;;;629.17;149.80;;;;;;;;;;4989002;28;20087;-55
2023/09/07 00:44:16;;;;;;;448.63;122.40;;;;;;;;;;4988360;28;20029;-54
2023/09/07 00:46:41;;;;;;;485.70;136.10;;;;;;;;;;4993823;28;20042;-54
2023/09/07 00:49:06;;;;;;;553.35;144.40;;;;;;;;;;4991052;28;21405;-54
2023/09/07 00:51:32;;;;;;;543.40;146.97;;;;;;;;;;4991780;28;20083;-57
2023/09/07 00:53:58;;;;;;;648.30;155.43;;;;;;;;;;4989666;28;20256;-55
2023/09/07 00:56:24;;;;;;;519.67;144.80;;;;;;;;;;4991546;28;20307;-53
2023/09/07 00:58:50;;;;;;;450.77;130.32;;;;;;;;;;4987558;28;20041;-53
2023/09/07 01:01:15;;;;;;;481.20;143.75;;;;;;;;;;4991134;28;20040;-54
2023/09/07 01:03:41;;;;;;;501.13;146.75;;;;;;;;;;4989038;28;20042;-53
2023/09/07 01:06:12;;;;;;;649.93;153.93;;;;;;;;;;4988360;28;20041;-55
2023/09/07 01:08:45;;;;;;;507.38;147.68;;;;;;;;;;4987629;28;20273;-57
2023/09/07 01:11:14;;;;;;;493.80;135.80;;;;;;;;;;4990705;28;20083;-54
2023/09/07 01:13:40;;;;;;;496.95;142.07;;;;;;;;;;4988433;28;20291;-55
2023/09/07 01:16:06;;;;;;;668.20;156.98;;;;;;;;;;4989869;28;20042;-56
2023/09/07 01:18:31;;;;;;;513.25;149.77;;;;;;;;;;4994403;28;20030;-55
2023/09/07 01:20:58;;;;;;;627.63;157.57;;;;;;;;;;4989299;28;20044;-55
2023/09/07 01:23:23;;;;;;;551.65;152.27;;;;;;;;;;4991039;28;20033;-56
2023/09/07 01:25:49;;;;;;;503.90;155.15;;;;;;;;;;4992055;28;20038;-53
2023/09/07 01:28:15;;;;;;;498.33;141.40;;;;;;;;;;4988025;28;20551;-54
2023/09/07 01:30:40;;;;;;;503.38;144.57;;;;;;;;;;4987946;28;20065;-54
2023/09/07 01:33:05;;;;;;;607.97;158.02;;;;;;;;;;4988449;28;20030;-56
2023/09/07 01:35:32;;;;;;;501.10;143.60;;;;;;;;;;4989536;28;20567;-54
2023/09/07 01:37:57;;;;;;;685.38;161.52;;;;;;;;;;4993580;28;20030;-54
2023/09/07 01:40:22;;;;;;;533.95;158.85;;;;;;;;;;4993275;28;20474;-55
2023/09/07 01:42:47;;;;;;;469.53;142.43;;;;;;;;;;4990830;28;20032;-54
2023/09/07 01:45:13;;;;;;;503.02;143.50;;;;;;;;;;4989703;28;20636;-55
2023/09/07 01:47:38;;;;;;;506.75;150.30;;;;;;;;;;4990407;28;20586;-55
2023/09/07 01:50:03;;;;;;;664.40;167.23;;;;;;;;;;4990936;28;20050;-54
2023/09/07 01:52:29;;;;;;;580.53;163.93;;;;;;;;;;4989171;28;20272;-55
2023/09/07 01:54:55;;;;;;;524.37;149.47;;;;;;;;;;4987955;28;20014;-56
2023/09/07 01:57:20;;;;;;;496.27;156.35;;;;;;;;;;4988823;28;20285;-53
2023/09/07 01:59:48;;;;;;;564.38;163.15;;;;;;;;;;4989141;28;20018;-56
2023/09/07 02:02:13;;;;;;;509.30;161.35;;;;;;;;;;4990004;28;20440;-54
2023/09/07 02:04:38;;;;;;;536.17;166.02;;;;;;;;;;4991308;28;20034;-54
2023/09/07 02:07:04;;;;;;;605.67;166.95;;;;;;;;;;4988398;28;20108;-53
2023/09/07 02:09:29;;;;;;;510.85;150.30;;;;;;;;;;4991346;28;20025;-54
2023/09/07 02:11:55;;;;;;;540.10;150.63;;;;;;;;;;4987161;28;20493;-54
2023/09/07 02:14:20;;;;;;;567.40;163.32;;;;;;;;;;4988909;28;20504;-53
2023/09/07 02:16:45;;;;;;;502.93;160.53;;;;;;;;;;4988677;28;20034;-54
2023/09/07 02:19:10;;;;;;;634.53;168.87;;;;;;;;;;4988912;28;20263;-54
2023/09/07 02:21:36;;;;;;;545.83;168.00;;;;;;;;;;4988825;28;20291;-54
2023/09/07 02:24:01;;;;;;;639.10;172.83;;;;;;;;;;4989295;28;20719;-56
2023/09/07 02:26:26;;;;;;;532.05;168.18;;;;;;;;;;4989043;28;20783;-56
2023/09/07 02:28:51;;;;;;;517.45;164.55;;;;;;;;;;4994404;28;20022;-53
2023/09/07 02:31:17;;;;;;;494.87;152.67;;;;;;;;;;4987874;28;20034;-53
2023/09/07 02:33:42;;;;;;;519.08;157.38;;;;;;;;;;4991686;28;20253;-54
2023/09/07 02:36:07;;;;;;;634.17;168.18;;;;;;;;;;4990821;28;20034;-55
2023/09/07 02:38:32;;;;;;;512.67;160.13;;;;;;;;;;4992509;28;20040;-55
2023/09/07 02:40:58;;;;;;;565.43;158.47;;;;;;;;;;4990097;28;20365;-54
2023/09/07 02:43:23;;;;;;;536.47;164.20;;;;;;;;;;4990572;28;20330;-55
2023/09/07 02:45:48;;;;;;;501.98;157.48;;;;;;;;;;4990571;28;20177;-54
2023/09/07 02:48:14;;;;;;;508.73;155.57;;;;;;;;;;4993417;28;20433;-55
2023/09/07 02:50:39;;;;;;;521.17;161.82;;;;;;;;;;4988393;28;20714;-55
2023/09/07 02:53:05;;;;;;;635.92;174.82;;;;;;;;;;4984814;28;20128;-54
2023/09/07 02:55:30;;;;;;;489.27;166.82;;;;;;;;;;4989205;28;20650;-54
2023/09/07 02:57:59;;;;;;;545.38;172.45;;;;;;;;;;4989931;28;20507;-56
2023/09/07 03:00:24;;;;;;;538.63;174.77;;;;;;;;;;4989766;28;20022;-55
2023/09/07 03:02:50;;;;;;;485.13;161.05;;;;;;;;;;4991296;28;20566;-54
2023/09/07 03:05:15;;;;;;;515.35;161.88;;;;;;;;;;4989045;28;20084;-55
2023/09/07 03:07:41;;;;;;;505.50;155.70;;;;;;;;;;4990054;28;20021;-53
2023/09/07 03:10:06;;;;;;;637.90;140.07;;;;;;;;;;4992082;28;20105;-54
2023/09/07 03:12:31;;;;;;;458.13;121.70;;;;;;;;;;4988642;28;20254;-56
2023/09/07 03:14:56;;;;;;;479.70;147.27;;;;;;;;;;4986860;28;20824;-54
2023/09/07 03:17:22;;;;;;;446.90;147.43;;;;;;;;;;4991373;28;20365;-55
2023/09/07 03:19:47;;;;;;;554.87;161.63;;;;;;;;;;4993118;28;20272;-54
2023/09/07 03:22:12;;;;;;;606.63;147.65;;;;;;;;;;4987827;28;20266;-54
2023/09/07 03:24:38;;;;;;;459.92;120.68;;;;;;;;;;4990540;28;20018;-53
2023/09/07 03:27:04;;;;;;;504.73;103.22;;;;;;;;;;4985763;28;20049;-53
2023/09/07 03:29:30;;;;;;;425.77;114.25;;;;;;;;;;4995743;28;20027;-53
2023/09/07 03:31:55;;;;;;;375.40;101.25;;;;;;;;;;4994481;28;20080;-54
2023/09/07 03:34:20;;;;;;;453.92;110.72;;;;;;;;;;4990650;28;20475;-53
2023/09/07 03:36:46;;;;;;;434.40;114.70;;;;;;;;;;4993818;28;20226;-53
2023/09/07 03:39:11;;;;;;;577.10;129.50;;;;;;;;;;4990279;28;20036;-53
2023/09/07 03:41:36;;;;;;;470.03;119.00;;;;;;;;;;4990343;28;20033;-55
2023/09/07 03:44:02;;;;;;;543.70;115.32;;;;;;;;;;4993032;28;20269;-54
2023/09/07 03:46:27;;;;;;;439.05;114.70;;;;;;;;;;4993232;28;20558;-54
2023/09/07 03:48:52;;;;;;;451.88;125.93;;;;;;;;;;4996848;28;20034;-54
2023/09/07 03:51:17;;;;;;;494.33;123.73;;;;;;;;;;4992718;28;20732;-53
2023/09/07 03:53:43;;;;;;;442.08;124.35;;;;;;;;;;4992249;28;20678;-54
2023/09/07 03:56:08;;;;;;;598.17;143.10;;;;;;;;;;4989846;28;20042;-56
2023/09/07 03:58:33;;;;;;;507.40;139.50;;;;;;;;;;4992031;28;20038;-56
2023/09/07 04:00:59;;;;;;;464.55;132.90;;;;;;;;;;4990062;28;20282;-55
2023/09/07 04:03:24;;;;;;;472.90;137.40;;;;;;;;;;4990111;28;20026;-55
2023/09/07 04:05:50;;;;;;;458.55;129.05;;;;;;;;;;4992845;28;20418;-56
2023/09/07 04:08:15;;;;;;;560.00;118.88;;;;;;;;;;4991651;28;20099;-54
2023/09/07 04:10:40;;;;;;;442.60;120.83;;;;;;;;;;4995760;28;20045;-60
2023/09/07 04:13:09;;;;;;;505.15;111.50;;;;;;;;;;4992521;28;20261;-57
2023/09/07 04:15:34;;;;;;;388.20;90.53;;;;;;;;;;4993226;28;20044;-55
2023/09/07 04:17:59;;;;;;;409.45;97.55;;;;;;;;;;4989381;28;20022;-55
2023/09/07 04:20:26;;;;;;;395.02;97.07;;;;;;;;;;4993464;28;20030;-56
2023/09/07 04:22:51;;;;;;;425.42;104.90;;;;;;;;;;4991776;28;20038;-57
2023/09/07 04:25:16;;;;;;;530.03;106.57;;;;;;;;;;4988888;28;20493;-55
2023/09/07 04:27:41;;;;;;;459.00;107.63;;;;;;;;;;4990820;28;20018;-55
2023/09/07 04:30:07;;;;;;;444.80;107.33;;;;;;;;;;4989595;28;20265;-56
2023/09/07 04:32:32;;;;;;;425.88;100.50;;;;;;;;;;4991236;28;20284;-53
2023/09/07 04:34:59;;;;;;;382.03;94.77;;;;;;;;;;4989339;28;20018;-53
2023/09/07 04:37:24;;;;;;;409.35;100.20;;;;;;;;;;4991058;28;20686;-53
2023/09/07 04:39:53;;;;;;;457.05;104.80;;;;;;;;;;4992470;28;20070;-54
2023/09/07 04:42:18;;;;;;;464.65;102.85;;;;;;;;;;4988524;28;20511;-54
2023/09/07 04:44:44;;;;;;;432.88;109.75;;;;;;;;;;4991570;28;20021;-56
2023/09/07 04:47:09;;;;;;;524.42;107.55;;;;;;;;;;4988555;28;20053;-56
2023/09/07 04:49:34;;;;;;;463.05;114.15;;;;;;;;;;4988098;28;20018;-54
2023/09/07 04:51:59;;;;;;;411.13;119.87;;;;;;;;;;4993032;28;20072;-56
2023/09/07 04:54:25;;;;;;;443.77;115.77;;;;;;;;;;4990425;28;20263;-55
2023/09/07 04:56:50;;;;;;;427.83;109.60;;;;;;;;;;4991575;28;20305;-55
2023/09/07 04:59:15;;;;;;;490.17;102.10;;;;;;;;;;4988069;28;20494;-54
2023/09/07 05:01:41;;;;;;;376.58;85.95;;;;;;;;;;4992696;28;20041;-54
2023/09/07 05:04:06;;;;;;;492.23;102.30;;;;;;;;;;4991113;28;20109;-56
2023/09/07 05:06:36;;;;;;;417.25;99.97;;;;;;;;;;4993838;28;20459;-56
2023/09/07 05:09:01;;;;;;;372.58;88.22;;;;;;;;;;4992061;28;20025;-55
2023/09/07 05:11:27;;;;;;;480.25;110.28;;;;;;;;;;4988531;28;20052;-55
2023/09/07 05:13:52;;;;;;;367.00;92.30;;;;;;;;;;4993924;28;20357;-55
2023/09/07 05:16:17;;;;;;;480.10;103.23;;;;;;;;;;4987352;28;20270;-54
2023/09/07 05:18:42;;;;;;;421.17;99.18;;;;;;;;;;4988659;28;20737;-55
2023/09/07 05:21:12;;;;;;;531.17;108.77;;;;;;;;;;4989717;28;20492;-57
2023/09/07 05:23:37;;;;;;;472.10;119.13;;;;;;;;;;4991394;28;20642;-54
2023/09/07 05:26:02;;;;;;;361.70;78.33;;;;;;;;;;4990662;28;20041;-54
2023/09/07 05:28:27;;;;;;;326.93;66.00;;;;;;;;;;4991334;28;20785;-56
2023/09/07 05:30:53;;;;;;;311.00;66.45;;;;;;;;;;4994049;28;20625;-56
2023/09/07 05:33:18;;;;;;;449.13;71.30;;;;;;;;;;4990965;28;20025;-55
2023/09/07 05:35:45;;;;;;;365.75;63.60;;;;;;;;;;4992273;28;20276;-56
2023/09/07 05:38:11;;;;;;;421.27;70.38;;;;;;;;;;4991071;28;20522;-55
2023/09/07 05:40:37;;;;;;;288.00;62.30;;;;;;;;;;4982025;28;20042;-57
2023/09/07 05:43:03;;;;;;;287.83;63.13;;;;;;;;;;4993839;28;20022;-56
2023/09/07 05:45:29;;;;;;;280.65;54.92;;;;;;;;;;4990457;28;20045;-56
2023/09/07 05:47:54;;;;;;;263.63;55.17;;;;;;;;;;4989915;28;20022;-58
2023/09/07 05:50:19;;;;;;;400.77;61.17;;;;;;;;;;4988340;28;20048;-57
2023/09/07 05:52:45;;;;;;;326.27;61.50;;;;;;;;;;4992570;28;20551;-57
2023/09/07 05:55:10;;;;;;;397.10;56.73;;;;;;;;;;4987058;28;20570;-58
2023/09/07 05:57:35;;;;;;;346.13;62.42;;;;;;;;;;4989421;28;20410;-55
2023/09/07 06:00:01;;;;;;;344.67;65.43;;;;;;;;;;4990632;28;20246;-56
2023/09/07 06:02:26;;;;;;;334.75;67.40;;;;;;;;;;4990226;28;20269;-56
2023/09/07 06:04:51;;;;;;;277.07;48.90;;;;;;;;;;4992894;28;20065;-57
2023/09/07 06:07:16;;;;;;;392.65;51.45;;;;;;;;;;4988173;28;20281;-55
2023/09/07 06:09:43;;;;;;;247.95;31.73;;;;;;;;;;4990012;28;20592;-57
2023/09/07 06:12:08;;;;;;;261.77;22.63;;;;;;;;;;4987037;28;20067;-55
2023/09/07 06:14:33;;;;;;;221.40;24.73;;;;;;;;;;4987553;28;20438;-58
2023/09/07 06:16:58;;;;;;;256.77;27.20;;;;;;;;;;4985827;28;20030;-55
2023/09/07 06:19:24;;;;;;;356.97;38.27;;;;;;;;;;4988288;28;20018;-57
2023/09/07 06:21:49;;;;;;;216.90;40.50;;;;;;;;;;4989224;28;20026;-54
2023/09/07 06:24:14;;;;;;;319.23;27.53;;;;;;;;;;4989724;28;20121;-55
2023/09/07 06:26:39;;;;;;;237.40;19.70;;;;;;;;;;4990217;28;20307;-54
2023/09/07 06:29:05;;;;;;;201.88;12.30;;;;;;;;;;4991755;28;20105;-54
2023/09/07 06:31:30;;;;;;;253.43;11.63;;;;;;;;;;4990496;28;20502;-55
2023/09/07 06:33:55;;;;;;;231.20;10.97;;;;;;;;;;4990645;28;20112;-54
2023/09/07 06:36:20;;;;;;;303.03;15.77;;;;;;;;;;4991421;28;20621;-54
2023/09/07 06:38:46;;;;;;;236.43;11.93;;;;;;;;;;4989257;28;20125;-55
2023/09/07 06:41:12;;;;;;;326.90;14.90;;;;;;;;;;4989876;28;20427;-57
2023/09/07 06:43:37;;;;;;;237.93;20.27;;;;;;;;;;4990854;28;20345;-54
2023/09/07 06:46:05;;;;;;;565.65;324.70;;;;;;;;;;4993108;28;20042;-56
2023/09/07 06:48:32;;;;;;;330.70;114.40;;;;;;;;;;4994078;28;20025;-54
2023/09/07 06:51:01;;;;;;;274.00;69.63;;;;;;;;;;4991802;28;20347;-56
2023/09/07 06:53:26;;;;;;;379.10;50.83;;;;;;;;;;4989781;28;20026;-55
2023/09/07 06:55:57;;;;;;;389.23;226.20;;;;;;;;;;4988280;28;20114;-57
2023/09/07 06:58:22;;;;;;;505.45;272.88;;;;;;;;;;4987683;28;20097;-55
2023/09/07 07:00:48;;;;;;;433.60;263.30;;;;;;;;;;4991264;28;20050;-55
2023/09/07 07:03:13;;;;;;;347.45;140.32;;;;;;;;;;4992921;28;20040;-56
2023/09/07 07:05:38;;;;;;;347.70;202.43;;;;;;;;;;5000392;28;20049;-56
2023/09/07 07:08:04;;;;;;;210.25;9.73;;;;;;;;;;4999638;28;20037;-56
2023/09/07 07:10:29;;;;;;;396.35;288.33;;;;;;;;;;4994427;28;20041;-55
2023/09/07 07:12:54;;;;;;;376.83;259.30;;;;;;;;;;4999895;28;20109;-54
2023/09/07 07:15:19;;;;;;;510.40;235.40;;;;;;;;;;4997949;28;20526;-56
2023/09/07 07:17:45;;;;;;;337.27;223.67;;;;;;;;;;4998503;28;20017;-55
2023/09/07 07:20:10;;;;;;;434.50;295.80;;;;;;;;;;4997420;28;20574;-56
2023/09/07 07:22:36;;;;;;;416.45;213.73;;;;;;;;;;4998425;28;20069;-56
2023/09/07 07:25:05;;;;;;;413.30;276.88;;;;;;;;;;4998444;28;20026;-57
2023/09/07 07:27:30;;;;;;;421.90;302.92;;;;;;;;;;4995573;28;20121;-55
2023/09/07 07:29:56;;;;;;;566.97;362.48;;;;;;;;;;4998010;28;20063;-56
2023/09/07 07:32:21;;;;;;;564.90;278.30;;;;;;;;;;4997773;28;20041;-56
2023/09/07 07:34:46;;;;;;;337.90;202.80;;;;;;;;;;4997169;28;20014;-55
2023/09/07 07:37:12;;;;;;;366.15;204.30;;;;;;;;;;4994710;28;20118;-55
2023/09/07 07:39:37;;;;;;;370.63;272.17;;;;;;;;;;4999510;28;20905;-56
2023/09/07 07:42:04;;;;;;;369.20;266.57;;;;;;;;;;4996806;28;20518;-54
2023/09/07 07:44:29;;;;;;;599.38;319.25;;;;;;;;;;4993901;28;20017;-57
2023/09/07 07:46:55;;;;;;;340.27;239.10;;;;;;;;;;4997570;28;20056;-56
2023/09/07 07:49:20;;;;;;;461.53;253.70;;;;;;;;;;4996476;28;20065;-54
2023/09/07 07:51:45;;;;;;;477.30;301.30;;;;;;;;;;4995602;28;20323;-57
2023/09/07 07:54:10;;;;;;;354.47;258.17;;;;;;;;;;4996037;28;20566;-57
2023/09/07 07:56:36;;;;;;;363.50;270.70;;;;;;;;;;4997804;28;20034;-55
2023/09/07 07:59:02;;;;;;;445.17;317.07;;;;;;;;;;4999677;28;20357;-54
2023/09/07 08:01:27;;;;;;;657.33;397.27;;;;;;;;;;4993071;28;20038;-57
2023/09/07 08:03:52;;;;;;;412.13;285.35;;;;;;;;;;4996458;28;20063;-57
2023/09/07 08:06:18;;;;;;;575.28;343.23;;;;;;;;;;4990530;28;20050;-56
2023/09/07 08:08:43;;;;;;;339.60;239.05;;;;;;;;;;4996313;28;20112;-58
2023/09/07 08:11:09;;;;;;;423.27;263.93;;;;;;;;;;4997292;28;20735;-59
2023/09/07 08:13:35;;;;;;;414.25;264.90;;;;;;;;;;4993043;28;20014;-57
2023/09/07 08:16:03;;;;;;;456.95;305.20;;;;;;;;;;4995146;28;20039;-57
2023/09/07 08:18:30;;;;;;;514.53;277.23;;;;;;;;;;4994973;28;20083;-56
2023/09/07 08:20:55;;;;;;;383.15;299.15;;;;;;;;;;4995019;28;20594;-57
2023/09/07 08:23:22;;;;;;;431.80;210.90;;;;;;;;;;4993033;28;20520;-56
2023/09/07 08:25:47;;;;;;;404.48;234.77;;;;;;;;;;4996096;28;20467;-57
2023/09/07 08:28:13;;;;;;;472.05;259.42;;;;;;;;;;4996701;28;20546;-57
2023/09/07 08:30:38;;;;;;;381.48;268.45;;;;;;;;;;4996474;28;20726;-57
2023/09/07 08:33:05;;;;;;;457.80;352.53;;;;;;;;;;4997935;28;20018;-56
2023/09/07 08:35:35;;;;;;;511.95;280.30;;;;;;;;;;4988004;28;20046;-57
2023/09/07 08:38:01;;;;;;;365.08;264.60;;;;;;;;;;4996308;28;20120;-55
2023/09/07 08:40:27;;;;;;;550.40;314.95;;;;;;;;;;4995095;28;20559;-56
2023/09/07 08:42:53;;;;;;;395.48;290.25;;;;;;;;;;4996108;28;20511;-55
2023/09/07 08:45:21;;;;;;;441.85;320.30;;;;;;;;;;4996954;28;20112;-54
2023/09/07 08:47:46;;;;;;;425.65;307.77;;;;;;;;;;4993443;28;20479;-55
2023/09/07 08:50:13;;;;;;;466.52;296.40;;;;;;;;;;4999250;28;20490;-56
2023/09/07 08:52:38;;;;;;;365.13;272.90;;;;;;;;;;4995404;28;20061;-57
2023/09/07 08:55:04;;;;;;;320.83;206.50;;;;;;;;;;4991767;28;20483;-56
2023/09/07 08:57:30;;;;;;;503.25;280.15;;;;;;;;;;4995370;28;20204;-56
2023/09/07 08:59:55;;;;;;;513.25;291.52;;;;;;;;;;4996052;28;20443;-56
2023/09/07 09:02:20;;;;;;;554.93;293.07;;;;;;;;;;4995115;28;20037;-56
2023/09/07 09:04:45;;;;;;;422.70;290.97;;;;;;;;;;4995595;28;20033;-55
2023/09/07 09:07:11;;;;;;;402.03;293.37;;;;;;;;;;4996185;28;20045;-55
2023/09/07 09:09:38;;;;;;;523.97;370.93;;;;;;;;;;4992989;28;20112;-57
2023/09/07 09:12:09;;;;;;;425.88;245.60;;;;;;;;;;4995606;28;20037;-57
2023/09/07 09:14:35;;;;;;;491.08;256.63;;;;;;;;;;4994784;28;20014;-55
2023/09/07 09:17:00;;;;;;;340.13;245.60;;;;;;;;;;4996631;28;20041;-55
2023/09/07 09:19:32;;;;;;;543.45;241.68;;;;;;;;;;4993582;28;20030;-57
2023/09/07 09:21:57;;;;;;;422.00;349.30;;;;;;;;;;4994665;28;20373;-55
2023/09/07 09:24:23;;;;;;;543.28;223.73;;;;;;;;;;4994810;28;20076;-55
2023/09/07 09:26:48;;;;;;;384.17;223.87;;;;;;;;;;4992346;28;20026;-56
2023/09/07 09:29:15;;;;;;;348.07;229.07;;;;;;;;;;4994658;28;20031;-54
2023/09/07 09:31:40;;;;;;;473.92;318.67;;;;;;;;;;4991685;28;20106;-55
2023/09/07 09:34:06;;;;;;;399.83;279.20;;;;;;;;;;4991797;28;20030;-56
2023/09/07 09:36:35;;;;;;;404.00;267.85;;;;;;;;;;4997201;28;20065;-56
2023/09/07 09:39:00;;;;;;;459.15;246.80;;;;;;;;;;4996688;28;20075;-55
2023/09/07 09:41:26;;;;;;;508.37;285.67;;;;;;;;;;4995876;28;20038;-56
2023/09/07 09:43:52;;;;;;;424.20;317.52;;;;;;;;;;4995379;28;20026;-57
2023/09/07 09:46:18;;;;;;;430.27;260.02;;;;;;;;;;4993373;28;20116;-57
2023/09/07 09:48:43;;;;;;;247.75;161.32;;;;;;;;;;4995125;28;20046;-56
2023/09/07 09:51:09;;;;;;;341.65;257.05;;;;;;;;;;4993645;28;20395;-54
2023/09/07 09:53:35;;;;;;;400.40;136.68;;;;;;;;;;4997424;28;20021;-57
2023/09/07 09:56:00;;;;;;;303.48;213.85;;;;;;;;;;4997434;28;20124;-57
2023/09/07 09:58:26;;;;;;;443.73;227.13;;;;;;;;;;5000417;28;20460;-57
2023/09/07 10:00:55;;;;;;;602.88;397.27;;;;;;;;;;4993108;28;20111;-57
2023/09/07 10:03:22;;;;;;;288.10;200.57;;;;;;;;;;4995273;28;20053;-55
2023/09/07 10:05:48;;;;;;;245.75;153.45;;;;;;;;;;4992955;28;20092;-57
2023/09/07 10:08:14;;;;;;;346.20;215.83;;;;;;;;;;4994372;28;20068;-55
2023/09/07 10:10:40;;;;;;;351.80;198.25;;;;;;;;;;4992030;28;21208;-55
2023/09/07 10:13:06;;;;;;;340.02;254.48;;;;;;;;;;4992236;28;20378;-55
2023/09/07 10:15:32;;;;;;;536.78;307.98;;;;;;;;;;4992181;28;20507;-55
2023/09/07 10:18:10;;;;;;;275.08;196.73;;;;;;;;;;4994445;28;20409;-56
2023/09/07 10:20:52;;;;;;;480.02;234.95;;;;;;;;;;4992288;28;20038;-56
2023/09/07 10:23:17;;;;;;;358.45;269.63;;;;;;;;;;4996192;28;20488;-56
2023/09/07 10:25:48;;;;;;;341.13;199.90;;;;;;;;;;4990151;28;20043;-55
2023/09/07 10:28:20;;;;;;;324.13;226.13;;;;;;;;;;4993094;28;20416;-55
2023/09/07 10:30:57;;;;;;;265.63;169.30;;;;;;;;;;4993330;28;20359;-57
2023/09/07 10:33:22;;;;;;;425.83;346.17;;;;;;;;;;4992786;28;20026;-55
2023/09/07 10:35:47;;;;;;;271.60;158.05;;;;;;;;;;4999441;28;20455;-61
2023/09/07 10:38:16;;;;;;;322.57;199.40;;;;;;;;;;4998898;28;20083;-54
2023/09/07 10:40:45;;;;;;;370.98;291.95;;;;;;;;;;4996000;28;21093;-56
2023/09/07 10:43:10;;;;;;;386.65;234.18;;;;;;;;;;4997810;28;20026;-55
2023/09/07 10:45:36;;;;;;;532.27;217.93;;;;;;;;;;5001186;28;20095;-56
2023/09/07 10:48:03;;;;;;;420.63;316.37;;;;;;;;;;4997975;28;20101;-53
2023/09/07 10:50:29;;;;;;;527.50;338.33;;;;;;;;;;4998157;28;20042;-56
2023/09/07 10:52:54;;;;;;;423.33;234.67;;;;;;;;;;4997128;28;20104;-53
2023/09/07 10:55:19;;;;;;;493.65;267.17;;;;;;;;;;4998475;28;20760;-59
2023/09/07 10:57:46;;;;;;;1184.70;611.57;;;;;;;;;;4998979;28;20036;-55
2023/09/07 11:00:11;;;;;;;409.23;195.02;;;;;;;;;;4995213;28;20017;-54
2023/09/07 11:02:40;;;;;;;467.13;237.85;;;;;;;;;;4996923;28;20018;-56
2023/09/07 11:05:06;;;;;;;299.60;180.80;;;;;;;;;;4998000;28;20132;-56
2023/09/07 11:07:32;;;;;;;493.67;179.05;;;;;;;;;;4996366;28;20100;-55
2023/09/07 11:09:58;;;;;;;423.05;175.30;;;;;;;;;;5002016;28;20108;-56
2023/09/07 11:12:23;;;;;;;326.43;225.60;;;;;;;;;;4999798;28;20034;-53
2023/09/07 11:14:48;;;;;;;392.97;155.03;;;;;;;;;;4996609;28;20026;-55
2023/09/07 11:17:13;;;;;;;409.83;316.33;;;;;;;;;;4997375;28;20537;-54
2023/09/07 11:19:39;;;;;;;472.67;235.03;;;;;;;;;;4999266;28;20025;-55
2023/09/07 11:22:04;;;;;;;483.33;314.93;;;;;;;;;;4997730;28;20042;-54
2023/09/07 11:24:30;;;;;;;598.17;255.82;;;;;;;;;;5003247;28;20022;-56
2023/09/07 11:26:57;;;;;;;375.55;237.48;;;;;;;;;;5001140;28;20033;-56
2023/09/07 11:29:22;;;;;;;605.78;316.67;;;;;;;;;;5002845;28;20026;-54
2023/09/07 11:31:48;;;;;;;368.92;244.95;;;;;;;;;;4998661;28;20099;-54
2023/09/07 11:34:14;;;;;;;349.42;217.25;;;;;;;;;;4999959;28;20025;-54
2023/09/07 11:36:40;;;;;;;487.98;210.05;;;;;;;;;;4992992;28;20030;-55
2023/09/07 11:39:12;;;;;;;362.05;239.98;;;;;;;;;;4999353;28;20041;-54
2023/09/07 11:41:37;;;;;;;;;;;;;;;;;;4997937;28;20147;-56
2023/09/07 11:44:02;;;;;;;375.80;254.80;;;;;;;;;;4999341;28;19914;-54
2023/09/07 11:46:27;;;;;;;394.83;219.25;;;;;;;;;;4994070;28;20477;-53
2023/09/07 11:48:52;;;;;;;298.03;203.70;;;;;;;;;;4996223;28;20071;-57
2023/09/07 11:51:18;;;;;;;386.30;234.00;;;;;;;;;;4997950;28;20091;-58
2023/09/07 11:53:43;;;;;;;516.60;307.93;;;;;;;;;;4994332;28;20558;-56
2023/09/07 11:56:08;;;;;;;326.30;227.47;;;;;;;;;;4994904;28;20554;-55
2023/09/07 11:58:33;;;;;;;614.63;274.13;;;;;;;;;;4997921;28;20264;-56
2023/09/07 12:00:59;;;;;;;339.15;228.52;;;;;;;;;;4998294;28;20689;-57
2023/09/07 12:03:24;;;;;;;391.43;286.40;;;;;;;;;;4993003;28;20030;-53
2023/09/07 12:05:49;;;;;;;483.70;327.80;;;;;;;;;;4993713;28;20041;-55
2023/09/07 12:08:14;;;;;;;470.87;356.27;;;;;;;;;;4996969;28;20268;-54
2023/09/07 12:10:40;;;;;;;534.57;249.97;;;;;;;;;;4998137;28;20257;-53
2023/09/07 12:13:05;;;;;;;366.63;226.17;;;;;;;;;;4995751;28;20530;-57
2023/09/07 12:15:30;;;;;;;469.00;260.83;;;;;;;;;;4996935;28;20261;-57
2023/09/07 12:17:55;;;;;;;350.03;221.77;;;;;;;;;;4998600;28;20710;-56
2023/09/07 12:20:21;;;;;;;389.73;275.27;;;;;;;;;;4998289;28;20400;-56
2023/09/07 12:22:46;;;;;;;384.15;245.10;;;;;;;;;;4995252;28;22048;-56
2023/09/07 12:25:11;;;;;;;380.50;297.87;;;;;;;;;;4998926;28;20382;-55
2023/09/07 12:27:37;;;;;;;444.98;228.38;;;;;;;;;;4995915;28;20262;-58
2023/09/07 12:30:02;;;;;;;392.37;225.57;;;;;;;;;;4997553;28;20018;-56
2023/09/07 12:32:28;;;;;;;369.83;265.42;;;;;;;;;;4994449;28;20336;-55
2023/09/07 12:34:53;;;;;;;315.20;237.63;;;;;;;;;;4998588;28;20443;-56
2023/09/07 12:37:19;;;;;;;478.95;289.58;;;;;;;;;;4993574;28;20041;-58
2023/09/07 12:39:44;;;;;;;594.35;323.13;;;;;;;;;;4993953;28;20108;-57
2023/09/07 12:42:09;;;;;;;349.90;227.20;;;;;;;;;;4994585;28;20038;-57
2023/09/07 12:44:34;;;;;;;514.83;207.20;;;;;;;;;;4994856;28;20269;-56
2023/09/07 12:47:00;;;;;;;362.23;214.57;;;;;;;;;;4992367;28;20037;-56
2023/09/07 12:49:25;;;;;;;428.23;338.07;;;;;;;;;;4995360;28;20022;-57
2023/09/07 12:51:50;;;;;;;571.60;343.90;;;;;;;;;;4993251;28;20045;-58
2023/09/07 12:54:16;;;;;;;416.20;316.87;;;;;;;;;;4993520;28;20550;-58
2023/09/07 12:56:41;;;;;;;679.78;412.20;;;;;;;;;;4996346;28;20034;-58
2023/09/07 12:59:07;;;;;;;499.10;356.13;;;;;;;;;;5000287;28;20141;-58
2023/09/07 13:01:32;;;;;;;441.53;260.50;;;;;;;;;;4996140;28;20132;-56
2023/09/07 13:03:58;;;;;;;408.88;282.58;;;;;;;;;;4996183;28;20037;-57
2023/09/07 13:06:23;;;;;;;440.80;289.63;;;;;;;;;;4994752;28;20042;-56
2023/09/07 13:08:48;;;;;;;458.53;314.23;;;;;;;;;;4994563;28;20773;-56
2023/09/07 13:11:13;;;;;;;422.33;205.50;;;;;;;;;;4996874;28;20269;-57
2023/09/07 13:13:39;;;;;;;589.50;314.50;;;;;;;;;;4995983;28;20014;-57
2023/09/07 13:16:04;;;;;;;347.65;202.50;;;;;;;;;;4993987;28;20034;-57
2023/09/07 13:18:30;;;;;;;384.45;268.95;;;;;;;;;;4997986;28;20071;-56
2023/09/07 13:20:59;;;;;;;351.20;233.05;;;;;;;;;;4991222;28;20072;-56
2023/09/07 13:23:27;;;;;;;451.83;320.38;;;;;;;;;;4993802;28;20053;-57
2023/09/07 13:25:52;;;;;;;357.60;274.17;;;;;;;;;;4995182;28;20045;-56
2023/09/07 13:28:17;;;;;;;439.37;276.33;;;;;;;;;;4996376;28;20265;-57
2023/09/07 13:30:43;;;;;;;659.53;372.93;;;;;;;;;;4989856;28;20668;-54
2023/09/07 13:33:08;;;;;;;450.15;329.30;;;;;;;;;;4992548;28;20255;-55
2023/09/07 13:35:33;;;;;;;428.23;234.00;;;;;;;;;;4994140;28;20099;-56
2023/09/07 13:37:59;;;;;;;407.17;364.83;;;;;;;;;;4994125;28;20277;-55
2023/09/07 13:40:24;;;;;;;440.98;284.90;;;;;;;;;;4995301;28;20032;-57
2023/09/07 13:42:49;;;;;;;571.40;297.77;;;;;;;;;;4994231;28;20022;-56
2023/09/07 13:45:14;;;;;;;585.17;460.90;;;;;;;;;;4996689;28;20421;-53